createdAt,value
2023-02-09T00:00:23.566Z,17.83
2023-02-09T00:01:31.780Z,17.82
2023-02-09T00:02:33.799Z,17.84
2023-02-09T00:03:36.412Z,17.78
2023-02-09T00:04:38.220Z,17.83
2023-02-09T00:05:40.074Z,17.82
2023-02-09T00:06:41.829Z,17.82
2023-02-09T00:07:43.678Z,17.81
2023-02-09T00:08:46.246Z,17.80
2023-02-09T00:09:48.026Z,17.79
2023-02-09T00:10:50.013Z,17.74
2023-02-09T00:12:10.080Z,17.80
2023-02-09T00:13:23.888Z,17.84
2023-02-09T00:14:26.245Z,17.85
2023-02-09T00:15:28.048Z,17.83
2023-02-09T00:16:29.960Z,17.80
2023-02-09T00:17:34.053Z,17.80
2023-02-09T00:18:36.093Z,17.79
2023-02-09T00:19:37.937Z,17.79
2023-02-09T00:20:39.709Z,17.77
2023-02-09T00:21:42.089Z,17.78
2023-02-09T00:22:43.957Z,17.71
2023-02-09T00:23:45.734Z,17.76
2023-02-09T00:24:47.608Z,17.67
2023-02-09T00:25:50.846Z,17.76
2023-02-09T00:26:52.858Z,17.73
2023-02-09T00:27:54.702Z,17.75
2023-02-09T00:28:56.549Z,17.76
2023-02-09T00:29:58.428Z,17.66
2023-02-09T00:31:00.366Z,17.74
2023-02-09T00:32:02.221Z,17.75
2023-02-09T00:33:04.104Z,17.74
2023-02-09T00:34:07.304Z,17.69
2023-02-09T00:35:09.163Z,17.76
2023-02-09T00:36:14.546Z,17.73
2023-02-09T00:37:16.532Z,17.75
2023-02-09T00:38:20.709Z,17.72
2023-02-09T00:39:23.037Z,17.75
2023-02-09T00:40:24.809Z,17.76
2023-02-09T00:41:44.945Z,17.67
2023-02-09T00:42:46.755Z,17.79
2023-02-09T00:43:48.690Z,17.78
2023-02-09T00:44:50.537Z,17.76
2023-02-09T00:45:52.361Z,17.75
2023-02-09T00:46:56.957Z,17.76
2023-02-09T00:47:59.657Z,17.74
2023-02-09T00:49:01.737Z,17.74
2023-02-09T00:50:06.714Z,17.70
2023-02-09T00:51:08.494Z,17.69
2023-02-09T00:52:10.892Z,17.74
2023-02-09T00:53:12.671Z,17.74
2023-02-09T00:54:19.448Z,17.74
2023-02-09T00:55:22.066Z,17.74
2023-02-09T00:56:24.017Z,17.73
2023-02-09T00:57:26.099Z,17.73
2023-02-09T00:58:27.857Z,17.74
2023-02-09T00:59:29.727Z,17.72
2023-02-09T01:00:31.595Z,17.64
2023-02-09T01:01:33.570Z,17.66
2023-02-09T01:02:35.536Z,17.72
2023-02-09T01:03:37.352Z,17.73
2023-02-09T01:04:39.573Z,17.72
2023-02-09T01:05:42.924Z,17.65
2023-02-09T01:06:46.122Z,17.73
2023-02-09T01:07:48.051Z,17.74
2023-02-09T01:08:50.961Z,17.72
2023-02-09T01:09:52.830Z,17.72
2023-02-09T01:10:54.604Z,17.69
2023-02-09T01:11:56.485Z,17.58
2023-02-09T01:12:58.353Z,17.69
2023-02-09T01:14:02.453Z,17.70
2023-02-09T01:15:06.185Z,17.73
2023-02-09T01:16:09.669Z,17.72
2023-02-09T01:17:14.652Z,17.73
2023-02-09T01:18:17.745Z,17.71
2023-02-09T01:19:19.580Z,17.72
2023-02-09T01:20:21.357Z,17.68
2023-02-09T01:21:23.510Z,17.71
2023-02-09T01:22:25.301Z,17.71
2023-02-09T01:23:27.515Z,17.71
2023-02-09T01:24:29.516Z,17.70
2023-02-09T01:25:31.335Z,17.67
2023-02-09T01:26:33.293Z,17.68
2023-02-09T01:27:35.680Z,17.60
2023-02-09T01:28:38.033Z,17.69
2023-02-09T01:29:40.888Z,17.71
2023-02-09T01:30:42.917Z,17.70
2023-02-09T01:31:45.479Z,17.70
2023-02-09T01:32:47.350Z,17.69
2023-02-09T01:33:49.378Z,17.67
2023-02-09T01:34:52.965Z,17.69
2023-02-09T01:35:59.036Z,17.68
2023-02-09T01:37:01.057Z,17.64
2023-02-09T01:38:02.813Z,17.69
2023-02-09T01:39:05.450Z,17.68
2023-02-09T01:40:10.754Z,17.69
2023-02-09T01:41:13.425Z,17.69
2023-02-09T01:42:18.360Z,17.67
2023-02-09T01:43:20.292Z,17.68
2023-02-09T01:44:22.033Z,17.67
2023-02-09T01:45:34.028Z,17.67
2023-02-09T01:46:37.015Z,17.68
2023-02-09T01:47:46.856Z,17.68
2023-02-09T01:48:53.779Z,17.64
2023-02-09T01:49:56.441Z,17.67
2023-02-09T01:51:00.852Z,17.67
2023-02-09T01:52:17.762Z,17.69
2023-02-09T01:53:20.360Z,17.70
2023-02-09T01:54:29.284Z,17.67
2023-02-09T01:55:34.859Z,17.67
2023-02-09T01:56:40.378Z,17.67
2023-02-09T01:57:51.566Z,17.67
2023-02-09T01:58:53.541Z,17.69
2023-02-09T02:00:08.986Z,17.44
2023-02-09T02:01:17.197Z,17.69
2023-02-09T02:02:20.260Z,17.66
2023-02-09T02:03:27.985Z,17.65
2023-02-09T02:04:30.960Z,17.66
2023-02-09T02:05:37.157Z,17.61
2023-02-09T02:06:39.668Z,17.65
2023-02-09T02:07:52.324Z,17.62
2023-02-09T02:09:01.264Z,17.65
2023-02-09T02:10:04.868Z,17.66
2023-02-09T02:11:08.584Z,17.64
2023-02-09T02:12:10.465Z,17.64
2023-02-09T02:13:12.362Z,17.62
2023-02-09T02:14:30.128Z,17.66
2023-02-09T02:15:45.833Z,17.68
2023-02-09T02:18:30.751Z,17.66
2023-02-09T02:19:49.979Z,17.69
2023-02-09T02:20:54.720Z,17.70
2023-02-09T02:22:33.072Z,17.71
2023-02-09T02:23:58.465Z,17.76
2023-02-09T02:25:03.025Z,17.73
2023-02-09T02:26:38.932Z,17.69
2023-02-09T02:27:47.572Z,17.73
2023-02-09T02:29:07.489Z,17.70
2023-02-09T02:30:13.377Z,17.71
2023-02-09T02:31:45.847Z,17.69
2023-02-09T02:32:47.702Z,17.72
2023-02-09T02:34:06.886Z,17.58
2023-02-09T02:35:18.353Z,17.65
2023-02-09T02:36:30.680Z,17.65
2023-02-09T02:37:40.789Z,17.62
2023-02-09T02:39:00.962Z,17.66
2023-02-09T02:40:18.029Z,17.68
2023-02-09T02:42:41.745Z,17.51
2023-02-09T02:44:08.610Z,17.80
2023-02-09T02:45:21.287Z,17.72
2023-02-09T02:46:23.080Z,17.69
2023-02-09T02:47:27.724Z,17.64
2023-02-09T02:48:40.943Z,17.60
2023-02-09T02:50:11.736Z,17.62
2023-02-09T02:51:45.960Z,17.67
2023-02-09T02:52:51.008Z,17.66
2023-02-09T02:53:56.744Z,17.65
2023-02-09T02:55:08.396Z,17.64
2023-02-09T02:56:15.577Z,17.57
2023-02-09T02:57:21.455Z,17.59
2023-02-09T02:58:25.912Z,17.56
2023-02-09T02:59:32.021Z,17.58
2023-02-09T03:00:48.919Z,17.61
2023-02-09T03:02:00.111Z,17.63
2023-02-09T03:03:09.030Z,17.59
2023-02-09T03:04:13.362Z,17.58
2023-02-09T03:05:17.733Z,17.60
2023-02-09T03:06:19.725Z,17.60
2023-02-09T03:07:21.669Z,17.55
2023-02-09T03:08:23.502Z,17.56
2023-02-09T03:09:25.271Z,17.55
2023-02-09T03:10:35.448Z,17.56
2023-02-09T03:11:44.612Z,17.58
2023-02-09T03:13:18.960Z,17.64
2023-02-09T03:14:42.749Z,17.65
2023-02-09T03:16:16.147Z,17.69
2023-02-09T03:17:20.940Z,17.71
2023-02-09T03:18:34.795Z,17.68
2023-02-09T03:20:11.974Z,17.66
2023-02-09T03:21:17.131Z,17.70
2023-02-09T03:22:35.540Z,17.68
2023-02-09T03:23:54.542Z,17.62
2023-02-09T03:25:21.761Z,17.71
2023-02-09T03:26:34.612Z,17.68
2023-02-09T03:27:41.443Z,17.65
2023-02-09T03:28:46.486Z,17.64
2023-02-09T03:29:50.986Z,17.59
2023-02-09T03:30:53.864Z,17.57
2023-02-09T03:31:56.893Z,17.52
2023-02-09T03:32:58.867Z,17.58
2023-02-09T03:34:01.186Z,17.57
2023-02-09T03:35:03.671Z,17.56
2023-02-09T03:36:12.840Z,17.55
2023-02-09T03:37:14.701Z,17.58
2023-02-09T03:38:16.888Z,17.57
2023-02-09T03:39:18.825Z,17.57
2023-02-09T03:40:20.889Z,17.57
2023-02-09T03:41:22.686Z,17.55
2023-02-09T03:42:24.514Z,17.56
2023-02-09T03:43:46.433Z,17.55
2023-02-09T03:44:48.336Z,17.62
2023-02-09T03:45:50.144Z,17.61
2023-02-09T03:46:52.664Z,17.58
2023-02-09T03:47:54.632Z,17.59
2023-02-09T03:48:56.419Z,17.57
2023-02-09T03:49:59.417Z,17.35
2023-02-09T03:51:01.276Z,17.58
2023-02-09T03:52:03.764Z,17.56
2023-02-09T03:53:08.479Z,17.54
2023-02-09T03:54:10.537Z,17.58
2023-02-09T03:55:12.337Z,17.58
2023-02-09T03:56:14.149Z,17.58
2023-02-09T03:57:16.010Z,17.58
2023-02-09T03:58:17.780Z,17.57
2023-02-09T03:59:20.952Z,17.57
2023-02-09T04:00:22.973Z,17.57
2023-02-09T04:01:24.780Z,17.57
2023-02-09T04:02:26.573Z,17.57
2023-02-09T04:03:28.460Z,17.57
2023-02-09T04:04:30.529Z,17.54
2023-02-09T04:05:32.415Z,17.56
2023-02-09T04:06:35.387Z,17.52
2023-02-09T04:07:37.466Z,17.56
2023-02-09T04:08:39.344Z,17.57
2023-02-09T04:09:41.284Z,17.57
2023-02-09T04:10:43.286Z,17.49
2023-02-09T04:11:45.332Z,17.57
2023-02-09T04:12:48.260Z,17.51
2023-02-09T04:13:50.176Z,17.56
2023-02-09T04:14:51.960Z,17.51
2023-02-09T04:15:54.140Z,17.57
2023-02-09T04:16:55.976Z,17.56
2023-02-09T04:17:57.881Z,17.57
2023-02-09T04:18:59.641Z,17.57
2023-02-09T04:20:01.452Z,17.50
2023-02-09T04:21:03.414Z,17.57
2023-02-09T04:22:05.419Z,17.36
2023-02-09T04:23:09.197Z,17.49
2023-02-09T04:24:11.418Z,17.50
2023-02-09T04:25:13.209Z,17.59
2023-02-09T04:26:15.319Z,17.54
2023-02-09T04:27:17.108Z,17.51
2023-02-09T04:28:19.034Z,17.52
2023-02-09T04:29:20.857Z,17.51
2023-02-09T04:30:22.710Z,17.54
2023-02-09T04:31:24.646Z,17.57
2023-02-09T04:32:26.589Z,17.58
2023-02-09T04:33:28.448Z,17.55
2023-02-09T04:34:30.251Z,17.58
2023-02-09T04:35:32.025Z,17.57
2023-02-09T04:36:33.837Z,17.58
2023-02-09T04:37:35.605Z,17.58
2023-02-09T04:38:37.655Z,17.52
2023-02-09T04:39:39.410Z,17.58
2023-02-09T04:40:41.395Z,17.58
2023-02-09T04:41:43.157Z,17.58
2023-02-09T04:42:46.255Z,17.58
2023-02-09T04:43:48.334Z,17.58
2023-02-09T04:44:50.204Z,17.53
2023-02-09T04:45:52.374Z,17.52
2023-02-09T04:46:54.284Z,17.54
2023-02-09T04:47:56.036Z,17.53
2023-02-09T04:48:57.800Z,17.53
2023-02-09T04:49:59.656Z,17.59
2023-02-09T04:51:01.365Z,17.58
2023-02-09T04:52:03.316Z,17.59
2023-02-09T04:53:05.436Z,17.58
2023-02-09T04:54:07.264Z,17.59
2023-02-09T04:55:09.055Z,17.55
2023-02-09T04:56:15.321Z,17.59
2023-02-09T04:57:35.825Z,17.57
2023-02-09T04:58:56.176Z,17.67
2023-02-09T04:59:57.970Z,17.67
2023-02-09T05:00:59.945Z,17.56
2023-02-09T05:02:01.786Z,17.57
2023-02-09T05:03:03.944Z,17.60
2023-02-09T05:04:05.719Z,17.57
2023-02-09T05:05:07.694Z,17.53
2023-02-09T05:06:09.533Z,17.55
2023-02-09T05:07:11.449Z,17.57
2023-02-09T05:08:13.218Z,17.57
2023-02-09T05:09:14.979Z,17.58
2023-02-09T05:10:17.033Z,17.51
2023-02-09T05:11:19.001Z,17.50
2023-02-09T05:12:20.901Z,17.50
2023-02-09T05:13:24.025Z,17.52
2023-02-09T05:14:25.933Z,17.58
2023-02-09T05:15:27.761Z,17.58
2023-02-09T05:16:29.608Z,17.52
2023-02-09T05:17:32.676Z,17.50
2023-02-09T05:18:35.124Z,17.57
2023-02-09T05:19:36.955Z,17.46
2023-02-09T05:20:38.972Z,17.57
2023-02-09T05:21:40.825Z,17.59
2023-02-09T05:22:42.597Z,17.57
2023-02-09T05:23:44.472Z,17.51
2023-02-09T05:24:47.150Z,17.58
2023-02-09T05:25:49.019Z,17.58
2023-02-09T05:26:50.891Z,17.57
2023-02-09T05:27:52.679Z,17.49
2023-02-09T05:28:54.466Z,17.58
2023-02-09T05:29:56.260Z,17.57
2023-02-09T05:30:58.091Z,17.56
2023-02-09T05:31:59.968Z,17.58
2023-02-09T05:33:03.189Z,17.56
2023-02-09T05:34:05.060Z,17.52
2023-02-09T05:35:08.499Z,17.57
2023-02-09T05:36:12.785Z,17.57
2023-02-09T05:37:14.652Z,17.51
2023-02-09T05:38:16.557Z,17.58
2023-02-09T05:39:18.354Z,17.54
2023-02-09T05:40:20.284Z,17.57
2023-02-09T05:41:40.848Z,17.57
2023-02-09T05:42:42.678Z,17.63
2023-02-09T05:43:44.468Z,17.61
2023-02-09T05:44:48.816Z,17.59
2023-02-09T05:45:50.684Z,17.57
2023-02-09T05:46:52.489Z,17.58
2023-02-09T05:47:54.266Z,17.58
2023-02-09T05:48:56.082Z,17.58
2023-02-09T05:49:57.985Z,17.51
2023-02-09T05:50:59.799Z,17.57
2023-02-09T05:52:01.611Z,17.51
2023-02-09T05:53:03.594Z,17.51
2023-02-09T05:54:05.435Z,17.58
2023-02-09T05:55:07.336Z,17.56
2023-02-09T05:56:09.117Z,17.57
2023-02-09T05:57:11.199Z,17.57
2023-02-09T05:58:13.434Z,17.51
2023-02-09T05:59:15.222Z,17.52
2023-02-09T06:00:17.230Z,17.57
2023-02-09T06:01:18.984Z,17.57
2023-02-09T06:02:21.064Z,17.57
2023-02-09T06:03:23.131Z,17.55
2023-02-09T06:04:26.053Z,17.52
2023-02-09T06:05:30.053Z,17.58
2023-02-09T06:06:31.971Z,17.54
2023-02-09T06:07:33.788Z,17.57
2023-02-09T06:08:35.604Z,17.56
2023-02-09T06:09:38.618Z,17.59
2023-02-09T06:10:40.456Z,17.55
2023-02-09T06:11:42.218Z,17.64
2023-02-09T06:12:44.032Z,17.62
2023-02-09T06:13:45.845Z,17.67
2023-02-09T06:14:47.622Z,17.68
2023-02-09T06:15:49.424Z,17.71
2023-02-09T06:16:51.478Z,17.69
2023-02-09T06:17:53.260Z,17.75
2023-02-09T06:18:55.347Z,17.79
2023-02-09T06:19:57.124Z,17.81
2023-02-09T06:20:58.946Z,17.84
2023-02-09T06:22:00.907Z,17.88
2023-02-09T06:23:02.964Z,17.89
2023-02-09T06:24:04.956Z,17.94
2023-02-09T06:25:07.001Z,17.97
2023-02-09T06:26:10.450Z,18.00
2023-02-09T06:27:13.445Z,17.99
2023-02-09T06:28:15.309Z,18.08
2023-02-09T06:29:17.181Z,18.06
2023-02-09T06:30:19.156Z,18.05
2023-02-09T06:31:21.036Z,18.14
2023-02-09T06:32:22.951Z,18.22
2023-02-09T06:33:24.714Z,18.25
2023-02-09T06:34:26.537Z,18.28
2023-02-09T06:35:28.466Z,18.26
2023-02-09T06:36:30.285Z,18.34
2023-02-09T06:37:32.251Z,18.37
2023-02-09T06:38:36.165Z,18.38
2023-02-09T06:39:37.965Z,18.43
2023-02-09T06:40:39.793Z,18.45
2023-02-09T06:41:41.592Z,18.47
2023-02-09T06:42:46.231Z,18.47
2023-02-09T06:43:48.054Z,18.52
2023-02-09T06:44:49.975Z,18.48
2023-02-09T06:45:52.266Z,18.57
2023-02-09T06:46:54.052Z,18.54
2023-02-09T06:47:55.940Z,18.60
2023-02-09T06:48:59.532Z,18.61
2023-02-09T06:50:02.080Z,18.63
2023-02-09T06:51:09.203Z,18.62
2023-02-09T06:52:11.054Z,18.62
2023-02-09T06:53:13.086Z,18.70
2023-02-09T06:54:15.185Z,18.71
2023-02-09T06:55:17.141Z,18.71
2023-02-09T06:56:20.303Z,18.72
2023-02-09T06:57:22.081Z,18.75
2023-02-09T06:58:23.841Z,18.75
2023-02-09T06:59:25.787Z,18.75
2023-02-09T07:00:28.141Z,18.74
2023-02-09T07:01:29.996Z,18.72
2023-02-09T07:02:31.849Z,18.79
2023-02-09T07:03:33.629Z,18.71
2023-02-09T07:04:35.501Z,18.80
2023-02-09T07:05:37.297Z,18.74
2023-02-09T07:06:39.069Z,18.83
2023-02-09T07:07:41.039Z,18.81
2023-02-09T07:08:43.559Z,18.78
2023-02-09T07:09:45.495Z,18.80
2023-02-09T07:10:47.616Z,18.84
2023-02-09T07:11:49.766Z,18.79
2023-02-09T07:12:51.824Z,18.69
2023-02-09T07:13:53.608Z,18.78
2023-02-09T07:14:55.474Z,18.87
2023-02-09T07:15:59.144Z,18.88
2023-02-09T07:17:01.186Z,18.89
2023-02-09T07:18:03.166Z,18.85
2023-02-09T07:19:04.949Z,18.67
2023-02-09T07:20:07.339Z,18.89
2023-02-09T07:21:12.283Z,18.87
2023-02-09T07:22:14.118Z,18.90
2023-02-09T07:23:15.883Z,18.90
2023-02-09T07:24:18.224Z,18.90
2023-02-09T07:25:20.080Z,18.85
2023-02-09T07:26:21.873Z,18.92
2023-02-09T07:27:23.717Z,18.91
2023-02-09T07:28:25.545Z,18.91
2023-02-09T07:29:27.454Z,18.86
2023-02-09T07:30:29.339Z,18.93
2023-02-09T07:31:31.338Z,18.93
2023-02-09T07:32:34.109Z,18.92
2023-02-09T07:33:36.629Z,18.90
2023-02-09T07:34:38.596Z,18.90
2023-02-09T07:35:40.980Z,18.94
2023-02-09T07:36:47.567Z,18.92
2023-02-09T07:37:49.933Z,18.90
2023-02-09T07:38:52.000Z,18.97
2023-02-09T07:39:53.894Z,18.95
2023-02-09T07:40:59.174Z,18.95
2023-02-09T07:42:01.006Z,18.94
2023-02-09T07:43:20.580Z,18.94
2023-02-09T07:44:22.785Z,18.98
2023-02-09T07:45:24.630Z,18.92
2023-02-09T07:46:26.427Z,18.98
2023-02-09T07:47:28.235Z,18.98
2023-02-09T07:48:30.699Z,18.96
2023-02-09T07:49:35.109Z,18.89
2023-02-09T07:50:36.989Z,18.94
2023-02-09T07:51:39.100Z,18.91
2023-02-09T07:52:40.981Z,18.98
2023-02-09T07:53:43.383Z,18.97
2023-02-09T07:54:45.212Z,18.98
2023-02-09T07:55:47.303Z,18.98
2023-02-09T07:56:49.285Z,18.94
2023-02-09T07:57:51.218Z,18.95
2023-02-09T07:58:54.053Z,18.91
2023-02-09T07:59:56.059Z,18.98
2023-02-09T08:01:04.287Z,18.98
2023-02-09T08:02:08.678Z,18.93
2023-02-09T08:03:10.909Z,19.00
2023-02-09T08:04:12.785Z,18.98
2023-02-09T08:05:21.371Z,18.99
2023-02-09T08:06:45.283Z,19.07
2023-02-09T08:07:47.376Z,19.05
2023-02-09T08:08:50.349Z,19.05
2023-02-09T08:09:52.157Z,19.04
2023-02-09T08:10:57.224Z,19.01
2023-02-09T08:12:03.154Z,18.88
2023-02-09T08:13:05.499Z,18.97
2023-02-09T08:14:14.088Z,19.00
2023-02-09T08:15:18.814Z,19.03
2023-02-09T08:16:25.233Z,19.02
2023-02-09T08:17:28.104Z,19.05
2023-02-09T08:18:36.655Z,19.03
2023-02-09T08:19:38.498Z,19.04
2023-02-09T08:20:41.870Z,19.04
2023-02-09T08:21:46.004Z,19.03
2023-02-09T08:22:51.772Z,19.04
2023-02-09T08:23:55.835Z,19.04
2023-02-09T08:24:59.934Z,19.01
2023-02-09T08:26:10.043Z,19.03
2023-02-09T08:27:11.979Z,19.07
2023-02-09T08:28:14.031Z,19.06
2023-02-09T08:29:15.932Z,19.07
2023-02-09T08:30:18.560Z,19.01
2023-02-09T08:31:22.104Z,19.05
2023-02-09T08:32:24.150Z,19.05
2023-02-09T08:33:26.080Z,19.05
2023-02-09T08:34:27.913Z,19.00
2023-02-09T08:35:30.819Z,19.05
2023-02-09T08:36:34.378Z,19.07
2023-02-09T08:37:36.222Z,19.01
2023-02-09T08:38:38.558Z,19.05
2023-02-09T08:39:40.348Z,19.06
2023-02-09T08:40:44.148Z,19.06
2023-02-09T08:41:46.489Z,19.04
2023-02-09T08:42:48.460Z,19.08
2023-02-09T08:43:51.682Z,18.95
2023-02-09T08:44:53.440Z,19.08
2023-02-09T08:45:55.349Z,19.03
2023-02-09T08:46:57.312Z,19.06
2023-02-09T08:47:59.599Z,19.07
2023-02-09T08:49:01.509Z,19.01
2023-02-09T08:50:03.910Z,19.08
2023-02-09T08:51:06.743Z,19.02
2023-02-09T08:52:08.910Z,19.00
2023-02-09T08:53:10.662Z,19.00
2023-02-09T08:54:12.505Z,19.08
2023-02-09T08:55:14.607Z,19.05
2023-02-09T08:56:16.365Z,19.10
2023-02-09T08:57:18.208Z,19.09
2023-02-09T08:58:20.122Z,19.10
2023-02-09T08:59:22.155Z,19.04
2023-02-09T09:00:24.061Z,19.10
2023-02-09T09:01:25.966Z,19.10
2023-02-09T09:02:27.753Z,19.07
2023-02-09T09:03:31.851Z,19.11
2023-02-09T09:04:33.812Z,19.12
2023-02-09T09:05:35.648Z,19.10
2023-02-09T09:06:37.465Z,19.11
2023-02-09T09:07:39.253Z,19.11
2023-02-09T09:08:41.240Z,19.12
2023-02-09T09:09:43.165Z,19.08
2023-02-09T09:10:44.926Z,19.11
2023-02-09T09:11:46.705Z,19.12
2023-02-09T09:12:48.577Z,19.12
2023-02-09T09:13:50.397Z,19.07
2023-02-09T09:14:52.251Z,19.13
2023-02-09T09:15:57.996Z,19.01
2023-02-09T09:17:00.139Z,19.13
2023-02-09T09:18:01.953Z,19.07
2023-02-09T09:19:04.453Z,19.10
2023-02-09T09:20:07.058Z,19.12
2023-02-09T09:21:10.790Z,19.13
2023-02-09T09:22:13.945Z,19.10
2023-02-09T09:23:16.340Z,19.14
2023-02-09T09:24:18.177Z,19.13
2023-02-09T09:25:19.934Z,19.11
2023-02-09T09:26:21.828Z,19.12
2023-02-09T09:27:26.009Z,19.06
2023-02-09T09:28:29.504Z,19.13
2023-02-09T09:29:34.242Z,19.14
2023-02-09T09:30:36.706Z,19.13
2023-02-09T09:31:38.654Z,19.04
2023-02-09T09:32:40.511Z,19.14
2023-02-09T09:33:42.953Z,19.10
2023-02-09T09:34:44.717Z,19.15
2023-02-09T09:35:46.946Z,19.08
2023-02-09T09:36:48.979Z,18.95
2023-02-09T09:37:50.872Z,19.15
2023-02-09T09:38:52.722Z,19.07
2023-02-09T09:39:54.569Z,19.06
2023-02-09T09:40:56.981Z,19.14
2023-02-09T09:42:00.762Z,19.11
2023-02-09T09:43:05.806Z,19.05
2023-02-09T09:44:16.875Z,19.14
2023-02-09T09:45:22.071Z,19.17
2023-02-09T09:46:34.053Z,19.18
2023-02-09T09:47:43.060Z,19.19
2023-02-09T09:48:47.890Z,19.19
2023-02-09T09:49:49.778Z,19.19
2023-02-09T09:50:56.956Z,19.17
2023-02-09T09:52:00.558Z,19.18
2023-02-09T09:53:08.707Z,19.18
2023-02-09T09:54:24.442Z,19.17
2023-02-09T09:55:32.088Z,19.20
2023-02-09T09:56:34.149Z,19.21
2023-02-09T09:57:43.428Z,19.19
2023-02-09T09:58:45.796Z,19.15
2023-02-09T09:59:48.057Z,19.19
2023-02-09T10:00:50.418Z,19.17
2023-02-09T10:01:55.284Z,19.17
2023-02-09T10:02:57.174Z,19.17
2023-02-09T10:04:02.302Z,19.17
2023-02-09T10:05:20.300Z,19.00
2023-02-09T10:06:23.207Z,19.22
2023-02-09T10:07:31.109Z,19.19
2023-02-09T10:08:37.704Z,19.21
2023-02-09T10:09:44.726Z,19.23
2023-02-09T10:10:49.325Z,19.23
2023-02-09T10:12:19.704Z,19.20
2023-02-09T10:13:27.237Z,19.33
2023-02-09T10:14:29.089Z,19.32
2023-02-09T10:15:35.106Z,19.25
2023-02-09T10:16:40.294Z,19.29
2023-02-09T10:17:42.178Z,19.33
2023-02-09T10:18:44.554Z,19.33
2023-02-09T10:20:01.289Z,19.36
2023-02-09T10:21:09.435Z,19.38
2023-02-09T10:22:13.721Z,19.30
2023-02-09T10:23:21.632Z,19.32
2023-02-09T10:24:26.324Z,19.41
2023-02-09T10:25:55.704Z,19.49
2023-02-09T10:27:23.105Z,19.28
2023-02-09T10:28:34.445Z,19.54
2023-02-09T10:29:36.774Z,19.52
2023-02-09T10:30:38.725Z,19.50
2023-02-09T10:31:43.158Z,19.47
2023-02-09T10:32:45.072Z,19.49
2023-02-09T10:34:02.610Z,19.46
2023-02-09T10:35:24.915Z,19.49
2023-02-09T10:36:37.799Z,19.55
2023-02-09T10:37:39.979Z,19.56
2023-02-09T10:38:41.879Z,19.54
2023-02-09T10:39:45.014Z,19.47
2023-02-09T10:40:47.687Z,19.50
2023-02-09T10:41:52.652Z,19.50
2023-02-09T10:42:59.794Z,19.50
2023-02-09T10:44:07.106Z,19.51
2023-02-09T10:45:24.980Z,19.55
2023-02-09T10:46:27.064Z,19.55
2023-02-09T10:47:31.055Z,19.53
2023-02-09T10:48:43.665Z,19.52
2023-02-09T10:49:55.228Z,19.55
2023-02-09T10:51:05.784Z,19.56
2023-02-09T10:52:19.855Z,19.57
2023-02-09T10:53:21.675Z,19.57
2023-02-09T10:54:24.920Z,19.54
2023-02-09T10:55:39.161Z,19.54
2023-02-09T10:56:47.722Z,19.54
2023-02-09T10:57:49.555Z,19.55
2023-02-09T10:59:15.642Z,19.55
2023-02-09T11:00:17.470Z,19.57
2023-02-09T11:01:25.702Z,19.54
2023-02-09T11:02:36.186Z,19.54
2023-02-09T11:04:00.410Z,19.56
2023-02-09T11:05:03.729Z,19.58
2023-02-09T11:06:19.563Z,19.57
2023-02-09T11:07:26.772Z,19.56
2023-02-09T11:08:41.834Z,19.50
2023-02-09T11:09:47.968Z,19.56
2023-02-09T11:11:06.267Z,19.56
2023-02-09T11:12:12.436Z,19.57
2023-02-09T11:13:20.008Z,19.56
2023-02-09T11:14:22.504Z,19.34
2023-02-09T11:15:33.018Z,19.53
2023-02-09T11:16:34.823Z,19.55
2023-02-09T11:17:48.512Z,19.52
2023-02-09T11:19:31.535Z,19.60
2023-02-09T11:21:01.016Z,19.61
2023-02-09T11:22:12.266Z,19.63
2023-02-09T11:23:14.020Z,19.61
2023-02-09T11:24:34.036Z,19.56
2023-02-09T11:25:45.404Z,19.59
2023-02-09T11:27:01.054Z,19.53
2023-02-09T11:28:21.641Z,19.59
2023-02-09T11:29:32.524Z,19.57
2023-02-09T11:30:43.129Z,19.57
2023-02-09T11:32:00.816Z,19.57
2023-02-09T11:33:41.479Z,19.60
2023-02-09T11:35:08.011Z,19.65
2023-02-09T11:36:28.380Z,19.64
2023-02-09T11:37:35.153Z,19.58
2023-02-09T11:38:58.686Z,19.60
2023-02-09T11:40:15.614Z,19.57
2023-02-09T11:41:47.013Z,19.56
2023-02-09T11:43:06.618Z,19.58
2023-02-09T11:44:17.945Z,19.55
2023-02-09T11:45:27.119Z,19.56
2023-02-09T11:46:33.473Z,19.55
2023-02-09T11:47:50.400Z,19.53
2023-02-09T11:49:00.961Z,19.54
2023-02-09T11:50:08.874Z,19.54
2023-02-09T11:51:21.296Z,19.52
2023-02-09T11:52:39.286Z,19.55
2023-02-09T11:53:45.999Z,19.55
2023-02-09T11:54:52.922Z,19.53
2023-02-09T11:56:03.841Z,19.47
2023-02-09T11:57:17.552Z,19.53
2023-02-09T11:58:56.817Z,19.57
2023-02-09T12:00:03.205Z,19.59
2023-02-09T12:01:42.604Z,19.59
2023-02-09T12:03:09.505Z,19.63
2023-02-09T12:04:21.384Z,19.60
2023-02-09T12:05:24.280Z,19.58
2023-02-09T12:06:29.853Z,19.52
2023-02-09T12:08:02.838Z,19.52
2023-02-09T12:09:45.069Z,19.61
2023-02-09T12:11:10.500Z,19.64
2023-02-09T12:12:30.582Z,19.64
2023-02-09T12:13:50.638Z,19.61
2023-02-09T12:15:01.285Z,19.59
2023-02-09T12:16:11.657Z,19.56
2023-02-09T12:17:22.186Z,19.53
2023-02-09T12:18:35.878Z,19.55
2023-02-09T12:19:45.243Z,19.48
2023-02-09T12:20:53.988Z,19.46
2023-02-09T12:21:55.818Z,19.51
2023-02-09T12:23:36.659Z,19.55
2023-02-09T12:24:40.404Z,19.57
2023-02-09T12:26:01.374Z,19.55
2023-02-09T12:27:03.655Z,19.55
2023-02-09T12:28:08.367Z,19.52
2023-02-09T12:29:35.403Z,19.56
2023-02-09T12:30:40.009Z,19.54
2023-02-09T12:32:06.199Z,19.57
2023-02-09T12:33:28.278Z,19.56
2023-02-09T12:34:39.366Z,19.57
2023-02-09T12:35:41.968Z,19.54
2023-02-09T12:37:14.476Z,19.53
2023-02-09T12:38:20.229Z,19.56
2023-02-09T12:39:28.598Z,19.52
2023-02-09T12:40:38.104Z,19.52
2023-02-09T12:41:42.662Z,19.52
2023-02-09T12:42:53.537Z,19.51
2023-02-09T12:44:10.602Z,19.54
2023-02-09T12:45:34.314Z,19.56
2023-02-09T12:46:45.132Z,19.56
2023-02-09T12:47:57.651Z,19.54
2023-02-09T12:49:11.419Z,19.53
2023-02-09T12:50:23.844Z,19.54
2023-02-09T12:51:50.737Z,19.57
2023-02-09T12:53:27.081Z,19.58
2023-02-09T12:54:41.125Z,19.60
2023-02-09T12:55:57.393Z,19.59
2023-02-09T12:57:17.986Z,19.58
2023-02-09T12:58:45.038Z,19.57
2023-02-09T12:59:50.069Z,19.55
2023-02-09T13:00:55.171Z,19.50
2023-02-09T13:02:05.925Z,19.51
2023-02-09T13:03:13.202Z,19.50
2023-02-09T13:04:15.570Z,19.50
2023-02-09T13:05:27.353Z,19.46
2023-02-09T13:06:36.814Z,19.49
2023-02-09T13:07:56.589Z,19.49
2023-02-09T13:09:02.397Z,19.46
2023-02-09T13:10:40.185Z,19.57
2023-02-09T13:11:50.971Z,19.34
2023-02-09T13:13:07.215Z,19.57
2023-02-09T13:14:14.620Z,19.54
2023-02-09T13:15:18.720Z,19.52
2023-02-09T13:16:23.574Z,19.50
2023-02-09T13:17:40.094Z,19.46
2023-02-09T13:19:13.694Z,19.56
2023-02-09T13:20:27.519Z,19.56
2023-02-09T13:21:32.124Z,19.53
2023-02-09T13:22:53.212Z,19.48
2023-02-09T13:24:03.377Z,19.54
2023-02-09T13:25:22.294Z,19.53
2023-02-09T13:26:27.861Z,19.53
2023-02-09T13:27:30.163Z,19.52
2023-02-09T13:28:32.222Z,19.51
2023-02-09T13:29:34.214Z,19.48
2023-02-09T13:30:37.765Z,19.46
2023-02-09T13:31:42.993Z,19.46
2023-02-09T13:33:02.994Z,19.50
2023-02-09T13:34:24.213Z,19.54
2023-02-09T13:35:31.138Z,19.54
2023-02-09T13:36:45.856Z,19.53
2023-02-09T13:37:55.603Z,19.53
2023-02-09T13:38:58.562Z,19.45
2023-02-09T13:40:12.799Z,19.50
2023-02-09T13:41:39.352Z,19.56
2023-02-09T13:42:53.365Z,19.48
2023-02-09T13:43:55.782Z,19.47
2023-02-09T13:44:59.503Z,19.52
2023-02-09T13:46:02.824Z,19.50
2023-02-09T13:47:07.869Z,19.50
2023-02-09T13:48:28.432Z,19.52
2023-02-09T13:49:30.378Z,19.54
2023-02-09T13:50:33.441Z,19.52
2023-02-09T13:51:35.286Z,19.50
2023-02-09T13:52:39.170Z,19.50
2023-02-09T13:53:41.705Z,19.50
2023-02-09T13:54:43.806Z,19.45
2023-02-09T13:55:48.113Z,19.47
2023-02-09T13:56:51.595Z,19.50
2023-02-09T13:58:01.259Z,19.48
2023-02-09T13:59:03.847Z,19.51
2023-02-09T14:00:30.840Z,19.50
2023-02-09T14:01:36.673Z,19.56
2023-02-09T14:02:38.859Z,19.52
2023-02-09T14:03:57.321Z,19.52
2023-02-09T14:05:02.762Z,19.54
2023-02-09T14:06:32.488Z,19.55
2023-02-09T14:07:37.200Z,19.50
2023-02-09T14:08:41.525Z,19.47
2023-02-09T14:10:01.240Z,19.53
2023-02-09T14:11:09.982Z,19.54
2023-02-09T14:12:17.762Z,19.52
2023-02-09T14:13:28.650Z,19.52
2023-02-09T14:14:52.994Z,19.53
2023-02-09T14:16:08.244Z,19.55
2023-02-09T14:17:25.916Z,19.58
2023-02-09T14:18:30.513Z,19.56